Pagrindinis puslapis
METAR-TAF:

METAR-TAF

Oro uostai :

Bethel, Aliaska, Jungtinės Amerikos Valstijos

platuma: 60-46-47N, ilguma: 161-50-16W, Aukštis: 38 m

Dabartinis oras

Ataskaita buvo paskelbta 1 valandą ir 3 minutes, ne 17:53 UTC
Vėjas 15 kt iš Šiaurės Rytų
Temperatūra -4°C
Drėgmė 80%
Slėgis 1021 hPa
Matomumas: 16.1 km
Giedras dangus

METAR: PABE 221753Z 04015KT 10SM CLR M04/M07 A3015 RMK AO2 SLP214 T10441067 11028 21044 58012

Laikas: 10:56 (18:56 UTC)

Prognozė

Ataskaita buvo paskelbta 1 valandą ir 16 minutes, ne 17:40 UTC
Prognozė galioja nuo 22 metu 18 UTC su 23 metu 18 UTC
Vėjas 15 kt iš Šiaurės Rytų su gūsio iki 25 kt
Matomumas: 10 km
Giedras dangus
Nuo 23 metu 0800 UTC
Vėjas 20 kt iš Rytų/Šiaurės Rytų su gūsio iki 32 kt
Matomumas: 6.4 km
Su prošvaistėmis ne aukštis 1500 ft
Apsiniaukę ne aukštis 3500 ft
sniegas

TAF: PABE 221740Z 2218/2318 05015G25KT P6SM SKC WS020/11041KT FM230800 07020G32KT 4SM -SN BKN015 OVC035 WS020/11046KT

Orai ataskaitas ir orų prognozės (METAR, TAF).

turimą stotys yra geltonos ir raudonos taškus žemėlapyje.

Perkelti pele per norėdami pamatyti stoties vardą.

Tada spustelėkite, norėdami matyti oro stebėjimo ir prognozės.

Norėdami pakeisti žemėlapį: spustelėkite ant žalios mygtukų su juodo kryžiaus žemyn,; žalią mygtuką su brūkšneliu, jei norite nutolinti; arba žalių rodyklių gretimoms žemėlapius.


METAR-TAF: